Time;durP1;ratioP1;P1;durP2;ratioP2;P2;SDS_P1;SDS_P2;PMS_P1;PMS_P2;Temp;Humidity;BMP_temperature;BMP_pressure;BME280_temperature;BME280_humidity;BME280_pressure;Samples;Min_cycle;Max_cycle;Signal;HPM_P1;HPM_P2
2022/01/09 00:01:00;;;;;;;50.97;46.70;;;;;;;-145.93;100.00;59239.47;4949775;29;19970;-86
2022/01/09 00:03:25;;;;;;;50.77;46.43;;;;;;;-145.93;100.00;59239.47;4924544;29;20062;-84
2022/01/09 00:05:50;;;;;;;51.13;46.73;;;;;;;-145.93;100.00;59239.47;4929720;28;20024;-85
2022/01/09 00:08:16;;;;;;;55.30;49.67;;;;;;;-145.93;100.00;59239.47;4936415;29;20031;-83
2022/01/09 00:10:46;;;;;;;50.50;46.27;;;;;;;-145.93;100.00;59239.47;4933947;29;20046;-84
2022/01/09 00:13:13;;;;;;;50.97;46.55;;;;;;;-145.93;100.00;59239.47;4947863;29;20056;-84
2022/01/09 00:15:38;;;;;;;50.58;46.38;;;;;;;-145.93;100.00;59239.47;4931876;29;20027;-83
2022/01/09 00:18:03;;;;;;;53.47;48.40;;;;;;;-145.93;100.00;59239.47;4950687;28;21315;-82
2022/01/09 00:20:29;;;;;;;53.83;48.50;;;;;;;-145.93;100.00;59239.47;4942424;29;20026;-82
2022/01/09 00:22:54;;;;;;;51.83;47.30;;;;;;;-145.93;100.00;59239.47;4942578;29;20036;-83
2022/01/09 00:25:22;;;;;;;52.67;47.53;;;;;;;-145.93;100.00;59239.47;4935832;29;20047;-83
2022/01/09 00:27:48;;;;;;;51.45;47.05;;;;;;;-145.93;100.00;59239.47;4919914;29;20024;-83
2022/01/09 00:30:15;;;;;;;51.30;46.78;;;;;;;-145.93;100.00;59239.47;4929290;29;20023;-83
2022/01/09 00:32:44;;;;;;;50.63;46.20;;;;;;;-145.93;100.00;59239.47;4938283;29;20027;-81
2022/01/09 00:35:10;;;;;;;51.20;46.70;;;;;;;-145.93;100.00;59239.47;4932314;29;20087;-82
2022/01/09 00:37:39;;;;;;;52.15;47.40;;;;;;;-145.93;100.00;59239.47;4962935;29;20019;-82
2022/01/09 00:40:07;;;;;;;51.42;46.95;;;;;;;-145.93;100.00;59239.47;4933696;28;20050;-81
2022/01/09 00:42:32;;;;;;;52.22;47.42;;;;;;;-145.93;100.00;59239.47;4938518;29;20028;-82
2022/01/09 00:44:57;;;;;;;51.97;47.10;;;;;;;-145.93;100.00;59239.47;4942475;28;20027;-84
2022/01/09 00:47:23;;;;;;;49.20;45.20;;;;;;;-145.93;100.00;59239.47;4934180;29;20482;-83
2022/01/09 00:49:48;;;;;;;51.40;47.10;;;;;;;-145.93;100.00;59239.47;4922957;28;20496;-83
2022/01/09 00:52:13;;;;;;;51.67;47.37;;;;;;;-145.93;100.00;59239.47;4932032;29;20561;-82
2022/01/09 00:54:39;;;;;;;50.87;46.43;;;;;;;-145.93;100.00;59239.47;4916984;29;20031;-83
2022/01/09 00:57:04;;;;;;;51.17;46.73;;;;;;;-145.93;100.00;59239.47;4934484;29;20036;-83
2022/01/09 00:59:30;;;;;;;50.33;46.20;;;;;;;-145.93;100.00;59239.47;4921759;29;20028;-83
2022/01/09 01:01:55;;;;;;;50.80;46.40;;;;;;;-145.93;100.00;59239.47;4929558;28;20054;-84
2022/01/09 01:04:21;;;;;;;50.90;46.43;;;;;;;-145.93;100.00;59239.47;4929647;29;20420;-84
2022/01/09 01:06:46;;;;;;;52.25;47.47;;;;;;;-145.93;100.00;59239.47;4927035;29;20090;-83
2022/01/09 01:09:12;;;;;;;50.80;46.43;;;;;;;-145.93;100.00;59239.47;4924486;29;20035;-81
2022/01/09 01:11:37;;;;;;;51.47;47.00;;;;;;;-145.93;100.00;59239.47;4927383;29;20038;-82
2022/01/09 01:14:03;;;;;;;51.13;46.73;;;;;;;-145.93;100.00;59239.47;4919847;29;20024;-81
2022/01/09 01:16:28;;;;;;;50.20;46.03;;;;;;;-145.93;100.00;59239.47;4926957;29;20135;-83
2022/01/09 01:18:55;;;;;;;52.93;47.87;;;;;;;-145.93;100.00;59239.47;4924599;29;20034;-83
2022/01/09 01:21:23;;;;;;;52.45;47.60;;;;;;;-145.93;100.00;59239.47;4926184;29;20055;-84
2022/01/09 01:23:51;;;;;;;53.42;48.35;;;;;;;-145.93;100.00;59239.47;4937162;28;20027;-85
2022/01/09 01:26:16;;;;;;;51.72;47.10;;;;;;;-145.93;100.00;59239.47;4952759;28;20034;-83
2022/01/09 01:28:42;;;;;;;52.23;46.93;;;;;;;-145.93;100.00;59239.47;4929838;29;20027;-82
2022/01/09 01:31:07;;;;;;;51.97;47.27;;;;;;;-145.93;100.00;59239.47;4932918;29;20027;-84
2022/01/09 01:33:32;;;;;;;52.93;48.07;;;;;;;-145.93;100.00;59239.47;4926464;29;20047;-82
2022/01/09 01:35:58;;;;;;;51.63;46.97;;;;;;;-145.93;100.00;59239.47;4942087;28;20031;-82
2022/01/09 01:38:23;;;;;;;55.67;49.77;;;;;;;-145.93;100.00;59239.47;4931448;29;20012;-83
2022/01/09 01:40:51;;;;;;;50.87;46.43;;;;;;;-145.93;100.00;59239.47;4932337;29;20023;-84
2022/01/09 01:43:17;;;;;;;50.72;46.30;;;;;;;-145.93;100.00;59239.47;4945124;29;20519;-82
2022/01/09 01:45:42;;;;;;;51.80;47.13;;;;;;;-145.93;100.00;59239.47;4928342;29;20027;-81
2022/01/09 01:48:09;;;;;;;54.33;48.67;;;;;;;-145.93;100.00;59239.47;4926307;29;20027;-82
2022/01/09 01:50:37;;;;;;;51.78;46.78;;;;;;;-145.93;100.00;59239.47;4931562;29;20042;-82
2022/01/09 01:53:10;;;;;;;51.95;47.25;;;;;;;-145.93;100.00;59239.47;4935268;29;20019;-82
2022/01/09 01:55:37;;;;;;;52.15;47.15;;;;;;;-145.93;100.00;59239.47;4921326;29;20034;-82
2022/01/09 01:58:07;;;;;;;54.53;49.00;;;;;;;-145.93;100.00;59239.47;4960331;28;20034;-83
2022/01/09 02:00:35;;;;;;;51.97;47.03;;;;;;;-145.93;100.00;59239.47;4925209;29;20039;-82
2022/01/09 02:03:00;;;;;;;52.65;47.65;;;;;;;-145.93;100.00;59239.47;4924766;29;20087;-82
2022/01/09 02:05:29;;;;;;;51.63;47.23;;;;;;;-145.93;100.00;59239.47;4922071;29;20079;-82
2022/01/09 02:07:56;;;;;;;52.45;47.58;;;;;;;-145.93;100.00;59239.47;4941055;29;20023;-82
2022/01/09 02:10:22;;;;;;;51.88;47.25;;;;;;;-145.93;100.00;59239.47;4919745;29;20043;-83
2022/01/09 02:12:52;;;;;;;51.20;46.73;;;;;;;-145.93;100.00;59239.47;4913831;29;20040;-83
2022/01/09 02:15:42;;;;;;;52.13;47.42;;;;;;;-145.93;100.00;59239.47;4936732;29;20492;-82
2022/01/09 02:18:10;;;;;;;52.63;47.63;;;;;;;-145.93;100.00;59239.47;4924354;29;20559;-82
2022/01/09 02:20:37;;;;;;;51.45;47.08;;;;;;;-145.93;100.00;59239.47;4922877;29;20023;-82
2022/01/09 02:23:06;;;;;;;51.63;46.92;;;;;;;-145.93;100.00;59239.47;4934774;29;20485;-82
2022/01/09 02:25:37;;;;;;;52.88;47.70;;;;;;;-145.93;100.00;59239.47;4924650;29;20059;-82
2022/01/09 02:28:04;;;;;;;54.40;48.95;;;;;;;-145.93;100.00;59239.47;4926159;28;20114;-82
2022/01/09 02:30:32;;;;;;;51.97;47.25;;;;;;;-145.93;100.00;59239.47;4925555;29;20020;-82
2022/01/09 02:33:01;;;;;;;50.28;46.00;;;;;;;-145.93;100.00;59239.47;4958659;29;20027;-80
2022/01/09 02:35:26;;;;;;;51.33;46.85;;;;;;;-145.93;100.00;59239.47;4943414;29;20019;-83
2022/01/09 02:37:52;;;;;;;51.83;47.10;;;;;;;-145.93;100.00;59239.47;4942153;28;20113;-83
2022/01/09 02:40:17;;;;;;;52.60;47.60;;;;;;;-145.93;100.00;59239.47;4942958;29;20297;-82
2022/01/09 02:42:43;;;;;;;54.07;48.73;;;;;;;-145.93;100.00;59239.47;4943017;29;20096;-82
2022/01/09 02:45:08;;;;;;;51.50;46.97;;;;;;;-145.93;100.00;59239.47;4937842;29;20026;-80
2022/01/09 02:47:36;;;;;;;52.15;47.20;;;;;;;-145.93;100.00;59239.47;4944399;29;20023;-82
2022/01/09 02:50:13;;;;;;;53.70;48.55;;;;;;;-145.93;100.00;59239.47;4934230;28;20031;-82
2022/01/09 02:52:49;;;;;;;55.70;50.03;;;;;;;-145.93;100.00;59239.47;4936919;29;20028;-82
2022/01/09 02:55:15;;;;;;;52.30;47.47;;;;;;;-145.93;100.00;59239.47;4930491;29;20099;-83
2022/01/09 02:57:42;;;;;;;52.90;47.47;;;;;;;-145.93;100.00;59239.47;4934903;29;20095;-82
2022/01/09 03:00:16;;;;;;;52.42;47.72;;;;;;;-145.93;100.00;59239.47;4930512;29;20113;-82
2022/01/09 03:02:42;;;;;;;55.47;49.70;;;;;;;-145.93;100.00;59239.47;4928352;29;20024;-83
2022/01/09 03:05:11;;;;;;;51.67;46.90;;;;;;;-145.93;100.00;59239.47;4921438;29;20108;-83
2022/01/09 03:07:38;;;;;;;51.78;47.13;;;;;;;-145.93;100.00;59239.47;4930129;29;20088;-81
2022/01/09 03:10:07;;;;;;;52.47;47.83;;;;;;;-145.93;100.00;59239.47;4921802;29;20213;-83
2022/01/09 03:12:33;;;;;;;53.08;48.17;;;;;;;-145.93;100.00;59239.47;4941659;29;20031;-83
2022/01/09 03:14:58;;;;;;;52.38;47.75;;;;;;;-145.93;100.00;59239.47;4940296;29;20051;-83
2022/01/09 03:17:24;;;;;;;52.93;48.20;;;;;;;-145.93;100.00;59239.47;4939237;29;20031;-83
2022/01/09 03:19:49;;;;;;;52.43;47.73;;;;;;;-145.93;100.00;59239.47;4938300;28;20032;-83
2022/01/09 03:22:14;;;;;;;53.50;48.30;;;;;;;-145.93;100.00;59239.47;4942507;29;20027;-83
2022/01/09 03:24:42;;;;;;;53.73;48.80;;;;;;;-145.93;100.00;59239.47;4934300;29;20034;-82
2022/01/09 03:27:08;;;;;;;51.78;47.33;;;;;;;-145.93;100.00;59239.47;4942785;29;20019;-82
2022/01/09 03:29:33;;;;;;;53.60;48.80;;;;;;;-145.93;100.00;59239.47;4975164;28;20039;-82
2022/01/09 03:31:58;;;;;;;52.63;47.83;;;;;;;-145.93;100.00;59239.47;4947074;29;20035;-82
2022/01/09 03:34:24;;;;;;;53.13;48.07;;;;;;;-145.93;100.00;59239.47;4944446;29;20023;-83
2022/01/09 03:36:49;;;;;;;51.63;47.13;;;;;;;-145.93;100.00;59239.47;4944472;29;20445;-82
2022/01/09 03:39:14;;;;;;;51.93;47.33;;;;;;;-145.93;100.00;59239.47;4935909;29;20038;-83
2022/01/09 03:41:39;;;;;;;51.93;47.37;;;;;;;-145.93;100.00;59239.47;4946308;29;20027;-85
2022/01/09 03:44:05;;;;;;;52.17;47.43;;;;;;;-145.93;100.00;59239.47;4933049;28;20053;-83
2022/01/09 03:46:31;;;;;;;51.90;47.38;;;;;;;-145.93;100.00;59239.47;4958714;29;20019;-82
2022/01/09 03:48:56;;;;;;;54.00;48.83;;;;;;;-145.93;100.00;59239.47;4932492;28;20016;-82
2022/01/09 03:51:25;;;;;;;52.30;47.43;;;;;;;-145.93;100.00;59239.47;4949882;29;20258;-83
2022/01/09 03:53:51;;;;;;;52.38;47.67;;;;;;;-145.93;100.00;59239.47;4938241;28;20104;-83
2022/01/09 03:56:16;;;;;;;51.45;46.85;;;;;;;-145.93;100.00;59239.47;4941300;29;20028;-83
2022/01/09 03:58:41;;;;;;;55.33;49.30;;;;;;;-145.93;100.00;59239.47;4936035;29;20053;-83
2022/01/09 04:01:08;;;;;;;51.07;46.70;;;;;;;-145.93;100.00;59239.47;4937577;29;20047;-83
2022/01/09 04:03:34;;;;;;;50.40;46.10;;;;;;;-145.93;100.00;59239.47;4932924;29;20059;-83
2022/01/09 04:06:01;;;;;;;52.67;47.67;;;;;;;-145.93;100.00;59239.47;4975089;28;20027;-84
2022/01/09 04:08:27;;;;;;;53.58;48.17;;;;;;;-145.93;100.00;59239.47;4944664;29;20070;-82
2022/01/09 04:10:52;;;;;;;53.27;48.10;;;;;;;-145.93;100.00;59239.47;4940626;29;20030;-83
2022/01/09 04:13:23;;;;;;;50.70;46.37;;;;;;;-145.93;100.00;59239.47;4942562;29;20035;-83
2022/01/09 04:15:49;;;;;;;50.83;46.45;;;;;;;-145.93;100.00;59239.47;4947256;29;20015;-82
2022/01/09 04:18:16;;;;;;;54.75;49.03;;;;;;;-145.93;100.00;59239.47;4938883;29;20022;-82
2022/01/09 04:20:42;;;;;;;51.15;46.67;;;;;;;-145.93;100.00;59239.47;4947091;29;20027;-81
2022/01/09 04:23:07;;;;;;;51.47;46.93;;;;;;;-145.93;100.00;59239.47;4942497;29;20023;-81
2022/01/09 04:25:33;;;;;;;51.40;46.93;;;;;;;-145.93;100.00;59239.47;4940302;29;20031;-81
2022/01/09 04:27:58;;;;;;;54.13;48.90;;;;;;;-145.93;100.00;59239.47;4951014;28;20036;-81
2022/01/09 04:30:23;;;;;;;51.67;46.97;;;;;;;-145.93;100.00;59239.47;4936295;29;20032;-82
2022/01/09 04:32:49;;;;;;;53.47;48.43;;;;;;;-145.93;100.00;59239.47;4938191;29;20027;-84
2022/01/09 04:35:14;;;;;;;50.87;46.50;;;;;;;-145.93;100.00;59239.47;4935556;29;20024;-83
2022/01/09 04:37:40;;;;;;;51.47;46.83;;;;;;;-145.93;100.00;59239.47;4945344;29;20079;-82
2022/01/09 04:40:09;;;;;;;51.27;46.70;;;;;;;-145.93;100.00;59239.47;4926443;29;20039;-83
2022/01/09 04:42:41;;;;;;;53.03;48.10;;;;;;;-145.93;100.00;59239.47;4928383;29;20050;-83
2022/01/09 04:45:08;;;;;;;53.08;48.25;;;;;;;-145.93;100.00;59239.47;4921684;29;20043;-84
2022/01/09 04:47:34;;;;;;;51.22;46.83;;;;;;;-145.93;100.00;59239.47;4933508;29;20602;-81
2022/01/09 04:49:59;;;;;;;52.17;47.70;;;;;;;-145.93;100.00;59239.47;4935045;29;20076;-83
2022/01/09 04:52:31;;;;;;;52.75;47.88;;;;;;;-145.93;100.00;59239.47;4931185;29;20036;-83
2022/01/09 04:54:56;;;;;;;50.80;46.47;;;;;;;-145.93;100.00;59239.47;4936926;29;20023;-83
2022/01/09 04:57:21;;;;;;;51.40;46.47;;;;;;;-145.93;100.00;59239.47;4927263;29;20051;-83
2022/01/09 04:59:47;;;;;;;52.23;47.47;;;;;;;-145.93;100.00;59239.47;4929416;29;20300;-83
2022/01/09 05:02:12;;;;;;;52.08;47.38;;;;;;;-145.93;100.00;59239.47;4926475;29;20028;-83
2022/01/09 05:04:38;;;;;;;51.07;46.47;;;;;;;-145.93;100.00;59239.47;4926258;29;20530;-84
2022/01/09 05:07:03;;;;;;;50.83;46.47;;;;;;;-145.93;100.00;59239.47;4928461;29;20031;-84
2022/01/09 05:09:29;;;;;;;52.27;47.40;;;;;;;-145.93;100.00;59239.47;4920257;29;20472;-84
2022/01/09 05:11:56;;;;;;;51.50;46.80;;;;;;;-145.93;100.00;59239.47;4925895;29;20042;-83
2022/01/09 05:14:21;;;;;;;53.00;48.13;;;;;;;-145.93;100.00;59239.47;4924152;29;20067;-83
2022/01/09 05:16:47;;;;;;;51.40;46.83;;;;;;;-145.93;100.00;59239.47;4927711;29;20456;-84
2022/01/09 05:19:28;;;;;;;50.60;46.42;;;;;;;-145.93;100.00;59239.47;4926833;29;20163;-83
2022/01/09 05:21:55;;;;;;;53.30;48.53;;;;;;;-145.93;100.00;59239.47;4930039;29;20116;-84
2022/01/09 05:24:20;;;;;;;53.13;48.17;;;;;;;-145.93;100.00;59239.47;4924393;28;20114;-84
2022/01/09 05:26:46;;;;;;;51.40;46.90;;;;;;;-145.93;100.00;59239.47;4948347;28;20131;-84
2022/01/09 05:29:13;;;;;;;50.87;46.50;;;;;;;-145.93;100.00;59239.47;4921997;29;20031;-83
2022/01/09 05:31:39;;;;;;;52.65;47.50;;;;;;;-145.93;100.00;59239.47;4921424;29;20023;-84
2022/01/09 05:34:05;;;;;;;51.00;46.70;;;;;;;-145.93;100.00;59239.47;4922493;29;20034;-83
2022/01/09 05:36:30;;;;;;;51.78;47.25;;;;;;;-145.93;100.00;59239.47;4942185;29;20035;-84
2022/01/09 05:38:56;;;;;;;52.87;48.03;;;;;;;-145.93;100.00;59239.47;4940943;29;20047;-83
2022/01/09 05:41:21;;;;;;;53.07;48.13;;;;;;;-145.93;100.00;59239.47;4935684;29;20018;-83
2022/01/09 05:43:47;;;;;;;50.90;46.53;;;;;;;-145.93;100.00;59239.47;4940625;28;20027;-83
2022/01/09 05:46:15;;;;;;;51.90;47.22;;;;;;;-145.93;100.00;59239.47;4940375;29;20039;-82
2022/01/09 05:48:41;;;;;;;54.25;49.25;;;;;;;-145.93;100.00;59239.47;4924405;29;20031;-83
2022/01/09 05:51:06;;;;;;;52.20;47.50;;;;;;;-145.93;100.00;59239.47;4917275;29;20042;-83
2022/01/09 05:53:31;;;;;;;53.73;48.83;;;;;;;-145.93;100.00;59239.47;4921796;29;20027;-83
2022/01/09 05:55:57;;;;;;;49.80;45.80;;;;;;;-145.93;100.00;59239.47;4927973;29;20045;-82
2022/01/09 05:58:22;;;;;;;55.47;49.70;;;;;;;-145.93;100.00;59239.47;4910335;29;20034;-83
2022/01/09 06:00:52;;;;;;;49.93;45.67;;;;;;;-145.93;100.00;59239.47;4939797;29;20493;-84
2022/01/09 06:03:18;;;;;;;53.55;48.58;;;;;;;-145.93;100.00;59239.47;4917427;29;20031;-82
2022/01/09 06:05:43;;;;;;;51.93;47.30;;;;;;;-145.93;100.00;59239.47;4925037;29;20030;-83
2022/01/09 06:08:09;;;;;;;53.63;48.53;;;;;;;-145.93;100.00;59239.47;4927224;29;20027;-82
2022/01/09 06:10:34;;;;;;;54.57;49.37;;;;;;;-145.93;100.00;59239.47;4924938;29;20015;-83
2022/01/09 06:12:59;;;;;;;51.77;47.37;;;;;;;-145.93;100.00;59239.47;4918229;29;20117;-82
2022/01/09 06:15:28;;;;;;;53.93;48.60;;;;;;;-145.93;100.00;59239.47;4930370;29;20031;-82
2022/01/09 06:17:53;;;;;;;54.67;49.45;;;;;;;-145.93;100.00;59239.47;4923577;29;20031;-81
2022/01/09 06:20:21;;;;;;;55.73;49.60;;;;;;;-145.93;100.00;59239.47;4916452;29;20031;-81
2022/01/09 06:22:46;;;;;;;56.92;51.17;;;;;;;-145.93;100.00;59239.47;4925712;29;20031;-82
2022/01/09 06:25:12;;;;;;;54.90;49.87;;;;;;;-145.93;100.00;59239.47;4917243;29;20058;-81
2022/01/09 06:27:37;;;;;;;55.40;49.90;;;;;;;-145.93;100.00;59239.47;4920105;29;20166;-84
2022/01/09 06:30:05;;;;;;;53.10;48.70;;;;;;;-145.93;100.00;59239.47;4924753;29;20063;-83
2022/01/09 06:32:31;;;;;;;53.78;49.05;;;;;;;-145.93;100.00;59239.47;4926864;29;20035;-82
2022/01/09 06:34:59;;;;;;;52.80;48.13;;;;;;;-145.93;100.00;59239.47;4923442;29;20028;-83
2022/01/09 06:37:24;;;;;;;55.10;49.83;;;;;;;-145.93;100.00;59239.47;4920895;29;20031;-83
2022/01/09 06:39:50;;;;;;;55.47;50.20;;;;;;;-145.93;100.00;59239.47;4920873;29;20027;-83
2022/01/09 06:42:15;;;;;;;53.80;49.00;;;;;;;-145.93;100.00;59239.47;4923829;29;20034;-84
2022/01/09 06:44:41;;;;;;;56.75;51.38;;;;;;;-145.93;100.00;59239.47;4926073;29;20047;-82
2022/01/09 06:47:07;;;;;;;56.97;51.50;;;;;;;-145.93;100.00;59239.47;4926081;29;20035;-83
2022/01/09 06:49:34;;;;;;;55.70;50.30;;;;;;;-145.93;100.00;59239.47;4935510;29;20019;-82
2022/01/09 06:51:59;;;;;;;53.70;48.92;;;;;;;-145.93;100.00;59239.47;4944919;29;20062;-82
2022/01/09 06:54:24;;;;;;;56.37;51.17;;;;;;;-145.93;100.00;59239.47;4942096;29;20043;-83
2022/01/09 06:56:50;;;;;;;58.67;52.87;;;;;;;-145.93;100.00;59239.47;4964328;28;20023;-82
2022/01/09 06:59:15;;;;;;;51.80;47.43;;;;;;;-145.93;100.00;59239.47;4948230;28;20212;-81
2022/01/09 07:01:40;;;;;;;56.80;51.27;;;;;;;-145.93;100.00;59239.47;4946327;29;20043;-82
2022/01/09 07:04:06;;;;;;;56.07;50.97;;;;;;;-145.93;100.00;59239.47;4943408;29;20134;-82
2022/01/09 07:06:33;;;;;;;58.47;52.63;;;;;;;-145.93;100.00;59239.47;4938537;29;20046;-83
2022/01/09 07:08:59;;;;;;;57.70;51.95;;;;;;;-145.93;100.00;59239.47;4931686;29;20034;-83
2022/01/09 07:11:24;;;;;;;57.20;51.77;;;;;;;-145.93;100.00;59239.47;4935054;29;20024;-82
2022/01/09 07:13:59;;;;;;;60.30;53.97;;;;;;;-145.93;100.00;59239.47;4936014;28;20035;-81
2022/01/09 07:16:24;;;;;;;57.53;51.92;;;;;;;-145.93;100.00;59239.47;4930908;29;20564;-82
2022/01/09 07:18:50;;;;;;;58.90;52.80;;;;;;;-145.93;100.00;59239.47;4950216;28;20031;-82
2022/01/09 07:21:15;;;;;;;57.33;51.83;;;;;;;-145.93;100.00;59239.47;4928170;29;20028;-83
2022/01/09 07:23:41;;;;;;;56.60;50.90;;;;;;;-145.93;100.00;59239.47;4917096;29;20035;-83
2022/01/09 07:26:06;;;;;;;58.83;52.93;;;;;;;-145.93;100.00;59239.47;4911770;29;20122;-85
2022/01/09 07:28:37;;;;;;;58.63;52.60;;;;;;;-145.93;100.00;59239.47;4915874;29;20031;-84
2022/01/09 07:31:02;;;;;;;58.83;52.50;;;;;;;-145.93;100.00;59239.47;4920862;29;20032;-85
2022/01/09 07:33:30;;;;;;;59.50;53.37;;;;;;;-145.93;100.00;59239.47;4918673;29;20528;-84
2022/01/09 07:35:56;;;;;;;57.22;51.60;;;;;;;-145.93;100.00;59239.47;4927968;28;20027;-83
2022/01/09 07:38:21;;;;;;;62.60;56.05;;;;;;;-145.93;100.00;59239.47;4924078;29;20047;-84
2022/01/09 07:40:47;;;;;;;58.57;52.53;;;;;;;-145.93;100.00;59239.47;4921253;29;20036;-85
2022/01/09 07:43:12;;;;;;;61.13;54.57;;;;;;;-145.93;100.00;59239.47;4968423;28;20027;-83
2022/01/09 07:45:43;;;;;;;56.70;51.27;;;;;;;-145.93;100.00;59239.47;4929487;29;20404;-84
2022/01/09 07:48:26;;;;;;;68.13;56.50;;;;;;;-145.93;100.00;59239.47;4915912;29;20628;-87
2022/01/09 07:50:52;;;;;;;58.50;52.60;;;;;;;-145.93;100.00;59239.47;4924720;29;20035;-84
2022/01/09 07:53:23;;;;;;;62.90;55.50;;;;;;;-145.93;100.00;59239.47;4927206;29;20032;-84
2022/01/09 07:55:52;;;;;;;60.65;54.70;;;;;;;-145.93;100.00;59239.47;4959944;28;20098;-82
2022/01/09 07:58:20;;;;;;;67.00;56.97;;;;;;;-145.93;100.00;59239.47;4943739;29;20027;-83
2022/01/09 08:00:45;;;;;;;57.40;52.03;;;;;;;-145.93;100.00;59239.47;4944410;29;20023;-83
2022/01/09 08:03:15;;;;;;;59.80;53.63;;;;;;;-145.93;100.00;59239.47;4941860;29;20036;-83
2022/01/09 08:05:41;;;;;;;59.92;53.63;;;;;;;-145.93;100.00;59239.47;4935085;29;20019;-85
2022/01/09 08:08:10;;;;;;;62.63;55.40;;;;;;;-145.93;100.00;59239.47;4933136;28;20062;-85
2022/01/09 08:10:35;;;;;;;59.22;53.28;;;;;;;-145.93;100.00;59239.47;4942592;28;20031;-85
2022/01/09 08:13:01;;;;;;;58.33;52.60;;;;;;;-145.93;100.00;59239.47;4929387;29;20034;-85
2022/01/09 08:15:32;;;;;;;59.85;53.33;;;;;;;-145.93;100.00;59239.47;4927871;29;20062;-86
2022/01/09 08:17:57;;;;;;;60.47;53.90;;;;;;;-145.93;100.00;59239.47;4939996;29;20050;-83
2022/01/09 08:20:25;;;;;;;61.77;55.30;;;;;;;-145.93;100.00;59239.47;4921615;29;20035;-84
2022/01/09 08:22:52;;;;;;;59.47;53.42;;;;;;;-145.93;100.00;59239.47;4930188;28;20037;-86
2022/01/09 08:25:18;;;;;;;57.85;52.35;;;;;;;-145.93;100.00;59239.47;4932317;29;20027;-85
2022/01/09 08:27:45;;;;;;;60.33;54.03;;;;;;;-145.93;100.00;59239.47;4943647;23;20051;-88
2022/01/09 08:30:12;;;;;;;58.60;53.00;;;;;;;-145.93;100.00;59239.47;4943743;29;20099;-85
2022/01/09 08:32:37;;;;;;;;;;;;;;;-145.93;100.00;59239.47;4933840;29;20031;-85
2022/01/09 08:35:03;;;;;;;60.28;54.20;;;;;;;-145.93;100.00;59239.47;4933510;29;19911;-85
2022/01/09 08:37:29;;;;;;;60.50;54.10;;;;;;;-145.93;100.00;59239.47;4935883;28;20484;-85
2022/01/09 08:39:54;;;;;;;61.13;54.47;;;;;;;-145.93;100.00;59239.47;4954887;28;20043;-86
2022/01/09 08:42:19;;;;;;;55.73;50.43;;;;;;;-145.93;100.00;59239.47;4931086;28;20470;-86
2022/01/09 08:44:46;;;;;;;58.63;52.73;;;;;;;-145.93;100.00;59239.47;4941167;29;20027;-87
2022/01/09 08:47:11;;;;;;;;;;;;;;;-145.93;100.00;59239.47;4946787;28;20023;-83
2022/01/09 08:49:37;;;;;;;56.13;50.63;;;;;;;-145.93;100.00;59239.47;4941664;28;19925;-86
2022/01/09 08:52:03;;;;;;;57.47;51.87;;;;;;;-145.93;100.00;59239.47;4949654;28;20595;-86
2022/01/09 08:54:31;;;;;;;59.08;53.08;;;;;;;-145.93;100.00;59239.47;4953224;28;20020;-87
2022/01/09 08:57:00;;;;;;;61.58;55.17;;;;;;;-145.93;100.00;59239.47;4933572;29;20107;-85
2022/01/09 08:59:26;;;;;;;60.92;54.58;;;;;;;-145.93;100.00;59239.47;4930668;28;20075;-86
2022/01/09 09:01:51;;;;;;;57.87;52.33;;;;;;;-145.93;100.00;59239.47;4938100;29;20023;-85
2022/01/09 09:04:24;;;;;;;60.57;54.43;;;;;;;-145.93;100.00;59239.47;4938704;29;20486;-87
2022/01/09 09:06:52;;;;;;;57.45;51.83;;;;;;;-145.93;100.00;59239.47;4923420;28;20027;-86
2022/01/09 09:09:17;;;;;;;59.30;53.00;;;;;;;-145.93;100.00;59239.47;4942762;28;20485;-86
2022/01/09 09:11:42;;;;;;;59.37;53.37;;;;;;;-145.93;100.00;59239.47;4948755;28;20023;-88
2022/01/09 09:14:08;;;;;;;61.87;55.63;;;;;;;-145.93;100.00;59239.47;4944861;28;20046;-87
2022/01/09 09:16:36;;;;;;;61.03;55.03;;;;;;;-145.93;100.00;59239.47;4926478;29;20036;-87
2022/01/09 09:19:01;;;;;;;59.72;53.58;;;;;;;-145.93;100.00;59239.47;4943191;29;20090;-86
2022/01/09 09:21:27;;;;;;;60.33;54.53;;;;;;;-145.93;100.00;59239.47;4949234;28;20064;-87
2022/01/09 09:23:52;;;;;;;60.20;54.07;;;;;;;-145.93;100.00;59239.47;4940216;28;20035;-87
2022/01/09 09:26:18;;;;;;;60.17;53.87;;;;;;;-145.93;100.00;59239.47;4932727;29;20016;-86
2022/01/09 09:28:44;;;;;;;63.80;56.10;;;;;;;-145.93;100.00;59239.47;4942203;28;20102;-86
2022/01/09 09:31:09;;;;;;;61.37;54.90;;;;;;;-145.93;100.00;59239.47;4942996;28;20062;-86
2022/01/09 09:33:34;;;;;;;60.80;54.67;;;;;;;-145.93;100.00;59239.47;4951820;28;20033;-86
2022/01/09 09:36:03;;;;;;;61.57;54.73;;;;;;;-145.93;100.00;59239.47;4933294;28;20031;-85
2022/01/09 09:38:32;;;;;;;61.78;55.13;;;;;;;-145.93;100.00;59239.47;4940366;28;20042;-87
2022/01/09 09:41:01;;;;;;;58.88;53.03;;;;;;;-145.93;100.00;59239.47;4946198;29;20035;-85
2022/01/09 09:43:32;;;;;;;59.63;53.40;;;;;;;-145.93;100.00;59239.47;4940694;28;20035;-91
2022/01/09 09:45:57;;;;;;;61.33;54.92;;;;;;;-145.93;100.00;59239.47;5158935;23;20055;-93
2022/01/09 09:48:26;;;;;;;60.70;54.33;;;;;;;-145.93;100.00;59239.47;4941380;29;20121;-94
2022/01/09 09:50:51;;;;;;;62.17;55.78;;;;;;;-145.93;100.00;59239.47;4949658;29;20023;-91
2022/01/09 09:53:26;;;;;;;61.10;54.60;;;;;;;-145.93;100.00;59239.47;4950316;29;20046;-92
2022/01/09 09:56:00;;;;;;;58.55;52.78;;;;;;;-145.93;100.00;59239.47;4950219;28;20038;-93
2022/01/09 09:58:33;;;;;;;59.83;53.85;;;;;;;-145.93;100.00;59239.47;4938729;29;20095;-91
2022/01/09 10:01:02;;;;;;;60.10;54.20;;;;;;;-145.93;100.00;59239.47;4958547;28;20090;-86
2022/01/09 10:03:31;;;;;;;58.42;52.63;;;;;;;-145.93;100.00;59239.47;4947869;29;20046;-88
2022/01/09 10:05:58;;;;;;;61.78;55.42;;;;;;;-145.93;100.00;59239.47;4953169;28;20039;-87
2022/01/09 10:08:58;;;;;;;58.35;52.60;;;;;;;-145.93;100.00;59239.47;4982891;28;20026;-84
2022/01/09 10:11:23;;;;;;;60.70;54.50;;;;;;;-145.93;100.00;59239.47;4906665;28;20047;-86
2022/01/09 10:14:16;;;;;;;58.63;53.07;;;;;;;-145.93;100.00;59239.47;4956826;28;20019;-83
2022/01/09 10:16:43;;;;;;;58.45;52.72;;;;;;;-145.93;100.00;59239.47;4959059;28;20023;-85
2022/01/09 10:19:11;;;;;;;58.05;52.33;;;;;;;-145.93;100.00;59239.47;4973723;28;20007;-87
2022/01/09 10:21:37;;;;;;;59.75;53.90;;;;;;;-145.93;100.00;59239.47;4964091;28;20026;-88
2022/01/09 10:24:11;;;;;;;59.43;53.47;;;;;;;-145.93;100.00;59239.47;4966555;28;20046;-89
2022/01/09 10:26:42;;;;;;;58.95;53.08;;;;;;;-145.93;100.00;59239.47;4963298;28;20015;-88
2022/01/09 10:29:21;;;;;;;59.28;53.28;;;;;;;-145.93;100.00;59239.47;4969410;28;20046;-87
2022/01/09 10:31:57;;;;;;;58.17;52.50;;;;;;;-145.93;100.00;59239.47;4954754;28;20276;-89
2022/01/09 10:34:28;;;;;;;55.87;50.47;;;;;;;-145.93;100.00;59239.47;4956400;28;20027;-89
2022/01/09 10:36:54;;;;;;;60.25;54.25;;;;;;;-145.93;100.00;59239.47;4943993;28;20300;-89
2022/01/09 10:39:51;;;;;;;59.20;53.08;;;;;;;-145.93;100.00;59239.47;4951386;28;20535;-90
2022/01/09 10:42:31;;;;;;;58.58;52.72;;;;;;;-145.93;100.00;59239.47;4949547;28;20066;-89
2022/01/09 10:45:50;;;;;;;;;;;;;;;;;;;;;
2022/01/09 10:48:56;;;;;;;57.35;51.92;;;;;;;-145.93;100.00;59239.47;4944098;29;20127;-88
2022/01/09 10:54:56;;;;;;;57.78;52.30;;;;;;;-145.93;100.00;59239.47;4961158;28;20400;-87
2022/01/09 11:01:30;;;;;;;60.15;54.13;;;;;;;-145.93;100.00;59239.47;4990705;28;20049;-87
2022/01/09 11:04:14;;;;;;;56.58;51.15;;;;;;;-145.93;100.00;59239.47;4996378;28;20034;-87
2022/01/09 11:06:43;;;;;;;55.92;50.78;;;;;;;-145.93;100.00;59239.47;4949986;28;20038;-87